NKS2231 KIAH-KFLL
Flight info
| Callsign | NKS2231 |
|---|---|
| Flight time | 1h 54m |
| Altitude | 37000 |
| Route | GUMBY3 LLA LEV Y290 OCHHO VNECK TEEKY4 |
| Aircraft | A321/M-SDE3FGHIRWY/LB1 |
Departure
| Time | 2026-05-03 22:30 |
|---|---|
| Airport | George Bush Intercontinental Airport (KIAH) |
Arrival
| Time | 2026-05-04 00:25 |
|---|---|
| Airport | Fort Lauderdale Hollywood International Airport (KFLL) |
| Time | Latitude | Longitude | Altitude | Speed | Heading |
|---|---|---|---|---|---|
| 2026-05-03 22:01 | 29.98513 | -95.34889 | 107 ft | 0 kts | 270° |
| 2026-05-03 22:15 | 29.98515 | -95.34868 | 106 ft | 4 kts | 294° |
| 2026-05-03 22:15 | 29.98506 | -95.34848 | 105 ft | 4 kts | 277° |
| 2026-05-03 22:15 | 29.98510 | -95.34829 | 105 ft | 4 kts | 194° |
| 2026-05-03 22:15 | 29.98535 | -95.34827 | 106 ft | 3 kts | 180° |
| 2026-05-03 22:16 | 29.98538 | -95.34827 | 104 ft | 0 kts | 180° |
| 2026-05-03 22:19 | 29.98535 | -95.34827 | 106 ft | 2 kts | 180° |
| 2026-05-03 22:19 | 29.98503 | -95.34827 | 107 ft | 6 kts | 180° |
| 2026-05-03 22:19 | 29.98468 | -95.34827 | 107 ft | 4 kts | 180° |
| 2026-05-03 22:20 | 29.98441 | -95.34827 | 107 ft | 3 kts | 180° |
| 2026-05-03 22:20 | 29.98431 | -95.34827 | 107 ft | 0 kts | 180° |
| 2026-05-03 22:21 | 29.98419 | -95.34827 | 107 ft | 4 kts | 180° |
| 2026-05-03 22:22 | 29.98389 | -95.34842 | 107 ft | 6 kts | 228° |
| 2026-05-03 22:22 | 29.98380 | -95.34893 | 107 ft | 7 kts | 268° |
| 2026-05-03 22:22 | 29.98380 | -95.34959 | 107 ft | 9 kts | 271° |
| 2026-05-03 22:22 | 29.98382 | -95.35036 | 107 ft | 11 kts | 272° |
| 2026-05-03 22:23 | 29.98381 | -95.35112 | 107 ft | 6 kts | 269° |
| 2026-05-03 22:23 | 29.98381 | -95.35166 | 107 ft | 8 kts | 270° |
| 2026-05-03 22:23 | 29.98410 | -95.35218 | 107 ft | 9 kts | 327° |
| 2026-05-03 22:23 | 29.98473 | -95.35257 | 107 ft | 11 kts | 332° |
| 2026-05-03 22:24 | 29.98548 | -95.35303 | 107 ft | 13 kts | 332° |
| 2026-05-03 22:24 | 29.98633 | -95.35354 | 107 ft | 14 kts | 333° |
| 2026-05-03 22:24 | 29.98725 | -95.35410 | 107 ft | 15 kts | 333° |
| 2026-05-03 22:24 | 29.98798 | -95.35456 | 106 ft | 9 kts | 331° |
| 2026-05-03 22:25 | 29.98856 | -95.35491 | 106 ft | 10 kts | 332° |
| 2026-05-03 22:25 | 29.98884 | -95.35555 | 107 ft | 9 kts | 258° |
| 2026-05-03 22:25 | 29.98853 | -95.35623 | 106 ft | 10 kts | 241° |
| 2026-05-03 22:25 | 29.98830 | -95.35675 | 107 ft | 2 kts | 242° |
| 2026-05-03 22:26 | 29.98829 | -95.35676 | 106 ft | 0 kts | 242° |
| 2026-05-03 22:29 | 29.98821 | -95.35693 | 107 ft | 8 kts | 242° |
| 2026-05-03 22:29 | 29.98780 | -95.35783 | 109 ft | 10 kts | 234° |
| 2026-05-03 22:29 | 29.98759 | -95.35772 | 109 ft | 8 kts | 139° |
| 2026-05-03 22:29 | 29.98552 | -95.35642 | 108 ft | 70 kts | 152° |
| 2026-05-03 22:30 | 29.97921 | -95.35255 | 110 ft | 132 kts | 152° |
| 2026-05-03 22:30 | 29.96961 | -95.34673 | 181 ft | 171 kts | 151° |
| 2026-05-03 22:30 | 29.95944 | -95.34000 | 823 ft | 170 kts | 140° |
| 2026-05-03 22:30 | 29.95376 | -95.32854 | 1396 ft | 171 kts | 101° |
| 2026-05-03 22:31 | 29.95110 | -95.31455 | 1668 ft | 189 kts | 102° |
| 2026-05-03 22:31 | 29.94791 | -95.29883 | 1890 ft | 214 kts | 102° |
| 2026-05-03 22:31 | 29.94424 | -95.28126 | 2243 ft | 233 kts | 102° |
| 2026-05-03 22:31 | 29.94033 | -95.26288 | 2968 ft | 238 kts | 103° |
| 2026-05-03 22:32 | 29.93703 | -95.24409 | 3699 ft | 242 kts | 92° |
| 2026-05-03 22:32 | 29.93697 | -95.22386 | 3952 ft | 259 kts | 88° |
| 2026-05-03 22:32 | 29.93732 | -95.20299 | 4007 ft | 264 kts | 88° |
| 2026-05-03 22:32 | 29.93775 | -95.18101 | 4013 ft | 287 kts | 88° |
| 2026-05-03 22:33 | 29.93821 | -95.15763 | 4203 ft | 298 kts | 88° |
| 2026-05-03 22:33 | 29.93864 | -95.13390 | 5172 ft | 292 kts | 88° |
| 2026-05-03 22:33 | 29.93900 | -95.11128 | 6475 ft | 276 kts | 88° |
| 2026-05-03 22:33 | 29.93922 | -95.08917 | 7305 ft | 277 kts | 90° |
| 2026-05-03 22:34 | 29.93643 | -95.06697 | 7975 ft | 284 kts | 104° |
| 2026-05-03 22:34 | 29.93015 | -95.04511 | 8655 ft | 290 kts | 107° |
| 2026-05-03 22:34 | 29.92356 | -95.02286 | 9323 ft | 296 kts | 107° |
| 2026-05-03 22:34 | 29.91686 | -95.00023 | 10003 ft | 301 kts | 107° |
| 2026-05-03 22:35 | 29.91004 | -94.97707 | 10481 ft | 312 kts | 107° |
| 2026-05-03 22:35 | 29.90293 | -94.95286 | 10671 ft | 333 kts | 107° |
| 2026-05-03 22:35 | 29.89536 | -94.92721 | 11172 ft | 341 kts | 107° |
| 2026-05-03 22:35 | 29.88764 | -94.90115 | 11770 ft | 347 kts | 108° |
| 2026-05-03 22:36 | 29.87975 | -94.87468 | 12388 ft | 352 kts | 108° |
| 2026-05-03 22:36 | 29.87177 | -94.84787 | 12997 ft | 356 kts | 108° |
| 2026-05-03 22:36 | 29.86370 | -94.82067 | 13616 ft | 361 kts | 108° |
| 2026-05-03 22:36 | 29.85554 | -94.79313 | 14194 ft | 366 kts | 108° |
| 2026-05-03 22:37 | 29.84727 | -94.76526 | 14708 ft | 370 kts | 108° |
| 2026-05-03 22:37 | 29.83887 | -94.73702 | 15228 ft | 375 kts | 108° |
| 2026-05-03 22:37 | 29.83035 | -94.70841 | 15730 ft | 380 kts | 108° |
| 2026-05-03 22:37 | 29.82182 | -94.67985 | 16248 ft | 385 kts | 108° |
| 2026-05-03 22:38 | 29.81307 | -94.65054 | 16758 ft | 389 kts | 108° |
| 2026-05-03 22:38 | 29.80421 | -94.62089 | 17278 ft | 394 kts | 108° |
| 2026-05-03 22:38 | 29.79521 | -94.59088 | 17788 ft | 399 kts | 108° |
| 2026-05-03 22:38 | 29.78611 | -94.56050 | 18299 ft | 404 kts | 108° |
| 2026-05-03 22:39 | 29.77694 | -94.52977 | 18748 ft | 408 kts | 108° |
| 2026-05-03 22:39 | 29.76768 | -94.49868 | 19185 ft | 413 kts | 109° |
| 2026-05-03 22:39 | 29.75831 | -94.46730 | 19624 ft | 417 kts | 109° |
| 2026-05-03 22:39 | 29.74894 | -94.43602 | 20040 ft | 421 kts | 109° |
| 2026-05-03 22:40 | 29.73931 | -94.40398 | 20435 ft | 426 kts | 109° |
| 2026-05-03 22:40 | 29.72954 | -94.37158 | 20851 ft | 431 kts | 109° |
| 2026-05-03 22:40 | 29.72088 | -94.33845 | 21288 ft | 434 kts | 100° |
| 2026-05-03 22:40 | 29.71657 | -94.30399 | 21708 ft | 438 kts | 95° |
| 2026-05-03 22:41 | 29.71282 | -94.26903 | 22143 ft | 442 kts | 95° |
| 2026-05-03 22:41 | 29.70895 | -94.23383 | 22573 ft | 446 kts | 96° |
| 2026-05-03 22:41 | 29.70497 | -94.19828 | 22987 ft | 450 kts | 96° |
| 2026-05-03 22:41 | 29.70089 | -94.16237 | 23415 ft | 455 kts | 96° |
| 2026-05-03 22:42 | 29.69679 | -94.12663 | 23808 ft | 459 kts | 96° |
| 2026-05-03 22:42 | 29.69259 | -94.09011 | 24165 ft | 463 kts | 96° |
| 2026-05-03 22:42 | 29.68839 | -94.05324 | 24517 ft | 466 kts | 95° |
| 2026-05-03 22:42 | 29.68639 | -94.01600 | 24859 ft | 467 kts | 87° |
| 2026-05-03 22:43 | 29.68612 | -93.97851 | 25208 ft | 471 kts | 87° |
| 2026-05-03 22:43 | 29.68588 | -93.94073 | 25554 ft | 474 kts | 87° |
| 2026-05-03 22:43 | 29.68564 | -93.90273 | 25890 ft | 477 kts | 87° |
| 2026-05-03 22:43 | 29.68535 | -93.86446 | 26220 ft | 480 kts | 87° |
| 2026-05-03 22:44 | 29.68500 | -93.82595 | 26548 ft | 483 kts | 87° |
| 2026-05-03 22:44 | 29.68462 | -93.78770 | 26892 ft | 486 kts | 87° |
| 2026-05-03 22:44 | 29.68423 | -93.74869 | 27204 ft | 489 kts | 87° |
| 2026-05-03 22:44 | 29.68381 | -93.70942 | 27524 ft | 492 kts | 87° |
| 2026-05-03 22:45 | 29.68337 | -93.66997 | 27828 ft | 495 kts | 86° |
| 2026-05-03 22:45 | 29.68295 | -93.63026 | 28137 ft | 498 kts | 86° |
| 2026-05-03 22:45 | 29.68250 | -93.59032 | 28439 ft | 501 kts | 86° |
| 2026-05-03 22:45 | 29.68205 | -93.55014 | 28740 ft | 504 kts | 86° |
| 2026-05-03 22:46 | 29.68158 | -93.50976 | 29038 ft | 507 kts | 86° |
| 2026-05-03 22:46 | 29.68107 | -93.46911 | 29334 ft | 510 kts | 86° |
| 2026-05-03 22:46 | 29.68056 | -93.42825 | 29624 ft | 512 kts | 86° |
| 2026-05-03 22:46 | 29.68005 | -93.38724 | 29912 ft | 515 kts | 86° |
| 2026-05-03 22:47 | 29.67955 | -93.34648 | 30195 ft | 518 kts | 86° |
| 2026-05-03 22:47 | 29.67903 | -93.30503 | 30442 ft | 520 kts | 86° |
| 2026-05-03 22:47 | 29.67849 | -93.26333 | 30678 ft | 523 kts | 86° |
| 2026-05-03 22:47 | 29.67793 | -93.22146 | 30905 ft | 525 kts | 86° |
| 2026-05-03 22:48 | 29.67733 | -93.17938 | 31132 ft | 528 kts | 86° |
| 2026-05-03 22:48 | 29.67670 | -93.13711 | 31356 ft | 530 kts | 86° |
| 2026-05-03 22:48 | 29.67601 | -93.09464 | 31575 ft | 532 kts | 86° |
| 2026-05-03 22:48 | 29.67529 | -93.05195 | 31822 ft | 535 kts | 86° |
| 2026-05-03 22:49 | 29.67457 | -93.00915 | 32038 ft | 536 kts | 86° |
| 2026-05-03 22:49 | 29.67388 | -92.96685 | 32363 ft | 536 kts | 86° |
| 2026-05-03 22:49 | 29.67319 | -92.92396 | 32658 ft | 536 kts | 85° |
| 2026-05-03 22:49 | 29.67254 | -92.88108 | 32928 ft | 537 kts | 85° |
| 2026-05-03 22:50 | 29.67186 | -92.83815 | 33216 ft | 537 kts | 85° |
| 2026-05-03 22:50 | 29.67117 | -92.79515 | 33513 ft | 537 kts | 85° |
| 2026-05-03 22:50 | 29.67044 | -92.75226 | 33855 ft | 536 kts | 85° |
| 2026-05-03 22:50 | 29.66968 | -92.70937 | 34144 ft | 536 kts | 85° |
| 2026-05-03 22:51 | 29.66917 | -92.68100 | 34318 ft | 537 kts | 85° |
| 2026-05-03 22:51 | 29.66840 | -92.63816 | 34656 ft | 535 kts | 85° |
| 2026-05-03 22:51 | 29.66761 | -92.59555 | 35003 ft | 532 kts | 85° |
| 2026-05-03 22:51 | 29.66678 | -92.55305 | 35294 ft | 531 kts | 86° |
| 2026-05-03 22:52 | 29.66565 | -92.49692 | 35660 ft | 530 kts | 86° |
| 2026-05-03 22:52 | 29.66508 | -92.46834 | 35841 ft | 529 kts | 86° |
| 2026-05-03 22:52 | 29.66425 | -92.42611 | 36087 ft | 528 kts | 86° |
| 2026-05-03 22:52 | 29.66269 | -92.38394 | 36317 ft | 530 kts | 92° |
| 2026-05-03 22:53 | 29.65692 | -92.34247 | 36538 ft | 534 kts | 101° |
| 2026-05-03 22:53 | 29.64827 | -92.30097 | 36751 ft | 534 kts | 101° |
| 2026-05-03 22:53 | 29.63965 | -92.25953 | 37023 ft | 532 kts | 101° |
| 2026-05-03 22:53 | 29.63110 | -92.21826 | 37139 ft | 528 kts | 101° |
| 2026-05-03 22:54 | 29.62274 | -92.17770 | 37170 ft | 515 kts | 101° |
| 2026-05-03 22:54 | 29.60643 | -92.09870 | 37149 ft | 505 kts | 101° |
| 2026-05-03 22:55 | 29.59016 | -92.02024 | 37162 ft | 504 kts | 101° |
| 2026-05-03 22:55 | 29.57383 | -91.94196 | 37151 ft | 504 kts | 101° |
| 2026-05-03 22:56 | 29.55749 | -91.86437 | 37150 ft | 501 kts | 102° |
| 2026-05-03 22:56 | 29.54113 | -91.78679 | 37164 ft | 499 kts | 102° |
| 2026-05-03 22:57 | 29.52484 | -91.70931 | 37120 ft | 499 kts | 102° |
| 2026-05-03 22:57 | 29.50852 | -91.63176 | 37139 ft | 500 kts | 102° |
| 2026-05-03 22:58 | 29.49223 | -91.55467 | 37155 ft | 501 kts | 102° |
| 2026-05-03 22:58 | 29.47564 | -91.47705 | 37184 ft | 501 kts | 103° |
| 2026-05-03 22:59 | 29.45905 | -91.39953 | 37187 ft | 500 kts | 103° |
| 2026-05-03 22:59 | 29.44243 | -91.32205 | 37191 ft | 500 kts | 103° |
| 2026-05-03 23:00 | 29.42580 | -91.24470 | 37179 ft | 499 kts | 103° |
| 2026-05-03 23:00 | 29.40935 | -91.16786 | 37190 ft | 499 kts | 103° |
| 2026-05-03 23:01 | 29.39275 | -91.09067 | 37190 ft | 498 kts | 104° |
| 2026-05-03 23:01 | 29.37606 | -91.01367 | 37182 ft | 497 kts | 104° |
| 2026-05-03 23:02 | 29.35933 | -90.93679 | 37173 ft | 497 kts | 104° |
| 2026-05-03 23:02 | 29.34260 | -90.86004 | 37170 ft | 496 kts | 104° |
| 2026-05-03 23:03 | 29.32597 | -90.78379 | 37167 ft | 496 kts | 104° |
| 2026-05-03 23:03 | 29.30920 | -90.70713 | 37167 ft | 496 kts | 105° |
| 2026-05-03 23:04 | 29.29232 | -90.63049 | 37162 ft | 496 kts | 105° |
| 2026-05-03 23:04 | 29.27544 | -90.55388 | 37165 ft | 496 kts | 105° |
| 2026-05-03 23:05 | 29.25848 | -90.47723 | 37173 ft | 496 kts | 105° |
| 2026-05-03 23:05 | 29.24152 | -90.40117 | 37123 ft | 497 kts | 105° |
| 2026-05-03 23:06 | 29.22450 | -90.32450 | 37143 ft | 497 kts | 106° |
| 2026-05-03 23:06 | 29.20751 | -90.24780 | 37151 ft | 497 kts | 106° |
| 2026-05-03 23:07 | 29.19033 | -90.17107 | 37155 ft | 498 kts | 106° |
| 2026-05-03 23:07 | 29.17167 | -90.09487 | 37153 ft | 495 kts | 115° |
| 2026-05-03 23:08 | 29.14482 | -90.02255 | 37151 ft | 494 kts | 116° |
| 2026-05-03 23:08 | 29.11797 | -89.95071 | 37163 ft | 495 kts | 116° |
| 2026-05-03 23:09 | 29.09093 | -89.87831 | 37161 ft | 495 kts | 116° |
| 2026-05-03 23:09 | 29.06376 | -89.80590 | 37163 ft | 496 kts | 116° |
| 2026-05-03 23:10 | 29.03651 | -89.73358 | 37163 ft | 496 kts | 116° |
| 2026-05-03 23:10 | 29.00920 | -89.66121 | 37175 ft | 496 kts | 116° |
| 2026-05-03 23:11 | 28.98209 | -89.58938 | 37172 ft | 496 kts | 116° |
| 2026-05-03 23:11 | 28.95482 | -89.51708 | 37117 ft | 496 kts | 117° |
| 2026-05-03 23:12 | 28.92744 | -89.44471 | 37126 ft | 497 kts | 117° |
| 2026-05-03 23:12 | 28.89994 | -89.37219 | 37136 ft | 498 kts | 117° |
| 2026-05-03 23:13 | 28.87240 | -89.29967 | 37139 ft | 499 kts | 117° |
| 2026-05-03 23:13 | 28.84493 | -89.22757 | 37157 ft | 499 kts | 117° |
| 2026-05-03 23:14 | 28.81718 | -89.15503 | 37157 ft | 499 kts | 117° |
| 2026-05-03 23:14 | 28.78942 | -89.08258 | 37161 ft | 499 kts | 117° |
| 2026-05-03 23:15 | 28.76160 | -89.01016 | 37165 ft | 499 kts | 117° |
| 2026-05-03 23:15 | 28.73396 | -88.93825 | 37165 ft | 499 kts | 117° |
| 2026-05-03 23:16 | 28.70611 | -88.86588 | 37162 ft | 499 kts | 117° |
| 2026-05-03 23:16 | 28.67830 | -88.79349 | 37163 ft | 499 kts | 118° |
| 2026-05-03 23:17 | 28.65042 | -88.72117 | 37108 ft | 499 kts | 118° |
| 2026-05-03 23:17 | 28.62263 | -88.64937 | 37120 ft | 499 kts | 119° |
| 2026-05-03 23:18 | 28.59450 | -88.57701 | 37131 ft | 500 kts | 119° |
| 2026-05-03 23:18 | 28.56634 | -88.50460 | 37138 ft | 501 kts | 119° |
| 2026-05-03 23:19 | 28.53811 | -88.43217 | 37147 ft | 501 kts | 119° |
| 2026-05-03 23:19 | 28.50988 | -88.35971 | 37155 ft | 501 kts | 120° |
| 2026-05-03 23:20 | 28.48183 | -88.28785 | 37158 ft | 500 kts | 120° |
| 2026-05-03 23:20 | 28.45357 | -88.21561 | 37158 ft | 500 kts | 120° |
| 2026-05-03 23:21 | 28.42530 | -88.14341 | 37154 ft | 500 kts | 120° |
| 2026-05-03 23:21 | 28.39687 | -88.07131 | 37140 ft | 500 kts | 120° |
| 2026-05-03 23:22 | 28.36093 | -87.96011 | 37149 ft | 505 kts | 113° |
| 2026-05-03 23:22 | 28.33917 | -87.88431 | 37106 ft | 505 kts | 113° |
| 2026-05-03 23:23 | 28.31726 | -87.80855 | 37118 ft | 505 kts | 113° |
| 2026-05-03 23:23 | 28.29531 | -87.73284 | 37127 ft | 505 kts | 113° |
| 2026-05-03 23:24 | 28.27342 | -87.65762 | 37135 ft | 505 kts | 114° |
| 2026-05-03 23:24 | 28.25138 | -87.58191 | 37133 ft | 505 kts | 114° |
| 2026-05-03 23:25 | 28.22935 | -87.50625 | 37139 ft | 505 kts | 114° |
| 2026-05-03 23:25 | 28.20724 | -87.43063 | 37148 ft | 505 kts | 114° |
| 2026-05-03 23:26 | 28.18524 | -87.35554 | 37140 ft | 505 kts | 114° |
| 2026-05-03 23:26 | 28.16301 | -87.28005 | 37144 ft | 505 kts | 115° |
| 2026-05-03 23:27 | 28.14075 | -87.20462 | 37146 ft | 504 kts | 115° |
| 2026-05-03 23:27 | 28.11855 | -87.12925 | 37147 ft | 504 kts | 115° |
| 2026-05-03 23:28 | 28.09647 | -87.05450 | 37143 ft | 504 kts | 115° |
| 2026-05-03 23:28 | 28.07421 | -86.97929 | 37141 ft | 504 kts | 115° |
| 2026-05-03 23:29 | 28.05191 | -86.90409 | 37140 ft | 503 kts | 116° |
| 2026-05-03 23:29 | 28.02949 | -86.82906 | 37109 ft | 503 kts | 116° |
| 2026-05-03 23:30 | 28.00719 | -86.75464 | 37098 ft | 503 kts | 116° |
| 2026-05-03 23:30 | 27.98524 | -86.67941 | 37113 ft | 504 kts | 115° |
| 2026-05-03 23:31 | 27.96375 | -86.60395 | 37121 ft | 504 kts | 115° |
| 2026-05-03 23:31 | 27.94213 | -86.52857 | 37110 ft | 504 kts | 116° |
| 2026-05-03 23:32 | 27.92037 | -86.45390 | 37116 ft | 503 kts | 116° |
| 2026-05-03 23:32 | 27.89833 | -86.37880 | 37122 ft | 503 kts | 116° |
| 2026-05-03 23:33 | 27.87630 | -86.30372 | 37126 ft | 503 kts | 116° |
| 2026-05-03 23:33 | 27.85438 | -86.22858 | 37128 ft | 503 kts | 116° |
| 2026-05-03 23:34 | 27.83239 | -86.15354 | 37116 ft | 503 kts | 117° |
| 2026-05-03 23:34 | 27.81045 | -86.07906 | 37122 ft | 503 kts | 117° |
| 2026-05-03 23:35 | 27.78840 | -86.00412 | 37127 ft | 503 kts | 117° |
| 2026-05-03 23:35 | 27.76630 | -85.92916 | 37127 ft | 503 kts | 117° |
| 2026-05-03 23:36 | 27.74413 | -85.85438 | 37120 ft | 503 kts | 117° |
| 2026-05-03 23:36 | 27.72206 | -85.78007 | 37122 ft | 502 kts | 117° |
| 2026-05-03 23:37 | 27.69979 | -85.70533 | 37122 ft | 502 kts | 117° |
| 2026-05-03 23:37 | 27.67754 | -85.63060 | 37121 ft | 502 kts | 117° |
| 2026-05-03 23:38 | 27.65521 | -85.55595 | 37120 ft | 502 kts | 117° |
| 2026-05-03 23:38 | 27.63303 | -85.48180 | 37117 ft | 502 kts | 117° |
| 2026-05-03 23:39 | 27.61074 | -85.40716 | 37110 ft | 502 kts | 117° |
| 2026-05-03 23:39 | 27.58968 | -85.33186 | 37109 ft | 510 kts | 109° |
| 2026-05-03 23:40 | 27.57593 | -85.25323 | 37103 ft | 512 kts | 108° |
| 2026-05-03 23:40 | 27.56238 | -85.17505 | 37104 ft | 512 kts | 108° |
| 2026-05-03 23:41 | 27.54864 | -85.09635 | 37106 ft | 512 kts | 108° |
| 2026-05-03 23:41 | 27.53485 | -85.01769 | 37095 ft | 512 kts | 109° |
| 2026-05-03 23:42 | 27.52095 | -84.93906 | 37095 ft | 512 kts | 109° |
| 2026-05-03 23:42 | 27.50723 | -84.86089 | 37096 ft | 512 kts | 109° |
| 2026-05-03 23:43 | 27.49336 | -84.78219 | 37095 ft | 512 kts | 109° |
| 2026-05-03 23:43 | 27.47933 | -84.70352 | 37098 ft | 512 kts | 109° |
| 2026-05-03 23:44 | 27.46531 | -84.62488 | 37066 ft | 512 kts | 109° |
| 2026-05-03 23:44 | 27.45124 | -84.54624 | 37081 ft | 512 kts | 109° |
| 2026-05-03 23:45 | 27.43717 | -84.46819 | 37086 ft | 512 kts | 109° |
| 2026-05-03 23:45 | 27.42359 | -84.38943 | 37084 ft | 516 kts | 104° |
| 2026-05-03 23:46 | 27.42006 | -84.31124 | 37102 ft | 526 kts | 97° |
| 2026-05-03 23:46 | 27.41792 | -84.22903 | 37108 ft | 525 kts | 97° |
| 2026-05-03 23:47 | 27.41567 | -84.14753 | 37113 ft | 524 kts | 97° |
| 2026-05-03 23:47 | 27.41333 | -84.06570 | 37112 ft | 523 kts | 98° |
| 2026-05-03 23:48 | 27.41091 | -83.98386 | 37088 ft | 522 kts | 97° |
| 2026-05-03 23:48 | 27.40856 | -83.90226 | 36880 ft | 525 kts | 98° |
| 2026-05-03 23:49 | 27.40733 | -83.86080 | 36617 ft | 535 kts | 97° |
| 2026-05-03 23:49 | 27.40602 | -83.81847 | 36374 ft | 546 kts | 97° |
| 2026-05-03 23:49 | 27.40469 | -83.77623 | 36128 ft | 549 kts | 97° |
| 2026-05-03 23:49 | 27.40339 | -83.73338 | 35894 ft | 548 kts | 97° |
| 2026-05-03 23:50 | 27.40212 | -83.69060 | 35655 ft | 546 kts | 97° |
| 2026-05-03 23:50 | 27.40130 | -83.66238 | 35498 ft | 544 kts | 97° |
| 2026-05-03 23:50 | 27.39957 | -83.60562 | 35182 ft | 541 kts | 97° |
| 2026-05-03 23:50 | 27.39821 | -83.56343 | 34953 ft | 538 kts | 97° |
| 2026-05-03 23:51 | 27.39681 | -83.52141 | 34707 ft | 536 kts | 97° |
| 2026-05-03 23:51 | 27.39540 | -83.47973 | 34478 ft | 532 kts | 97° |
| 2026-05-03 23:51 | 27.39399 | -83.43878 | 34252 ft | 529 kts | 97° |
| 2026-05-03 23:51 | 27.39259 | -83.39750 | 34019 ft | 527 kts | 97° |
| 2026-05-03 23:52 | 27.39122 | -83.35639 | 33757 ft | 524 kts | 97° |
| 2026-05-03 23:52 | 27.38985 | -83.31551 | 33495 ft | 521 kts | 97° |
| 2026-05-03 23:52 | 27.38845 | -83.27490 | 33231 ft | 518 kts | 97° |
| 2026-05-03 23:52 | 27.38706 | -83.23447 | 32976 ft | 516 kts | 97° |
| 2026-05-03 23:53 | 27.38567 | -83.19426 | 32721 ft | 513 kts | 97° |
| 2026-05-03 23:53 | 27.38387 | -83.15490 | 32443 ft | 507 kts | 101° |
| 2026-05-03 23:53 | 27.37834 | -83.11616 | 32195 ft | 497 kts | 110° |
| 2026-05-03 23:53 | 27.36909 | -83.07913 | 31958 ft | 490 kts | 114° |
| 2026-05-03 23:54 | 27.35930 | -83.04256 | 31709 ft | 487 kts | 114° |
| 2026-05-03 23:54 | 27.34955 | -83.00607 | 31459 ft | 485 kts | 114° |
| 2026-05-03 23:54 | 27.33987 | -82.96983 | 31218 ft | 483 kts | 113° |
| 2026-05-03 23:54 | 27.33023 | -82.93373 | 30976 ft | 481 kts | 113° |
| 2026-05-03 23:55 | 27.32063 | -82.89781 | 30747 ft | 479 kts | 113° |
| 2026-05-03 23:55 | 27.31107 | -82.86198 | 30518 ft | 477 kts | 113° |
| 2026-05-03 23:55 | 27.30168 | -82.82687 | 30282 ft | 475 kts | 113° |
| 2026-05-03 23:55 | 27.29189 | -82.79157 | 30036 ft | 470 kts | 117° |
| 2026-05-03 23:56 | 27.27914 | -82.75822 | 29683 ft | 459 kts | 124° |
| 2026-05-03 23:56 | 27.26498 | -82.72625 | 29411 ft | 456 kts | 124° |
| 2026-05-03 23:56 | 27.25092 | -82.69441 | 29136 ft | 453 kts | 124° |
| 2026-05-03 23:56 | 27.23700 | -82.66280 | 28862 ft | 451 kts | 124° |
| 2026-05-03 23:57 | 27.22314 | -82.63131 | 28621 ft | 448 kts | 124° |
| 2026-05-03 23:57 | 27.20934 | -82.60000 | 28351 ft | 446 kts | 124° |
| 2026-05-03 23:57 | 27.19577 | -82.56930 | 28092 ft | 444 kts | 124° |
| 2026-05-03 23:57 | 27.18208 | -82.53837 | 27841 ft | 441 kts | 124° |
| 2026-05-03 23:58 | 27.16842 | -82.50756 | 27585 ft | 439 kts | 124° |
| 2026-05-03 23:58 | 27.15487 | -82.47696 | 27338 ft | 437 kts | 124° |
| 2026-05-03 23:58 | 27.14138 | -82.44646 | 27088 ft | 435 kts | 124° |
| 2026-05-03 23:58 | 27.12796 | -82.41614 | 26843 ft | 433 kts | 124° |
| 2026-05-03 23:59 | 27.11456 | -82.38598 | 26580 ft | 430 kts | 124° |
| 2026-05-03 23:59 | 27.10123 | -82.35605 | 26336 ft | 427 kts | 124° |
| 2026-05-03 23:59 | 27.08795 | -82.32630 | 26096 ft | 425 kts | 124° |
| 2026-05-03 23:59 | 27.07493 | -82.29712 | 25903 ft | 422 kts | 124° |
| 2026-05-04 00:00 | 27.06183 | -82.26770 | 26042 ft | 423 kts | 124° |
| 2026-05-04 00:00 | 27.04867 | -82.23816 | 26065 ft | 424 kts | 124° |
| 2026-05-04 00:00 | 27.03549 | -82.20858 | 26064 ft | 424 kts | 124° |
| 2026-05-04 00:00 | 27.02227 | -82.17902 | 26075 ft | 424 kts | 124° |
| 2026-05-04 00:01 | 27.00904 | -82.14946 | 26079 ft | 424 kts | 124° |
| 2026-05-04 00:01 | 26.99584 | -82.11993 | 26078 ft | 424 kts | 124° |
| 2026-05-04 00:01 | 26.98263 | -82.09036 | 25917 ft | 424 kts | 124° |
| 2026-05-04 00:01 | 26.96916 | -82.06136 | 26031 ft | 418 kts | 129° |
| 2026-05-04 00:02 | 26.95327 | -82.03493 | 26081 ft | 411 kts | 137° |
| 2026-05-04 00:02 | 26.93458 | -82.01108 | 26071 ft | 404 kts | 143° |
| 2026-05-04 00:02 | 26.91516 | -81.98827 | 26081 ft | 405 kts | 143° |
| 2026-05-04 00:02 | 26.89571 | -81.96535 | 26082 ft | 406 kts | 143° |
| 2026-05-04 00:03 | 26.87627 | -81.94241 | 26083 ft | 406 kts | 143° |
| 2026-05-04 00:03 | 26.85684 | -81.91947 | 26082 ft | 406 kts | 143° |
| 2026-05-04 00:03 | 26.83743 | -81.89652 | 26080 ft | 406 kts | 143° |
| 2026-05-04 00:03 | 26.81800 | -81.87358 | 26078 ft | 406 kts | 143° |
| 2026-05-04 00:04 | 26.79882 | -81.85097 | 26075 ft | 406 kts | 143° |
| 2026-05-04 00:04 | 26.77939 | -81.82810 | 26074 ft | 406 kts | 143° |
| 2026-05-04 00:04 | 26.75989 | -81.80520 | 25974 ft | 407 kts | 143° |
| 2026-05-04 00:04 | 26.74040 | -81.78241 | 25675 ft | 405 kts | 143° |
| 2026-05-04 00:05 | 26.72092 | -81.75972 | 25230 ft | 404 kts | 143° |
| 2026-05-04 00:05 | 26.70147 | -81.73712 | 24809 ft | 402 kts | 143° |
| 2026-05-04 00:05 | 26.68214 | -81.71465 | 24406 ft | 401 kts | 143° |
| 2026-05-04 00:05 | 26.66285 | -81.69229 | 24075 ft | 396 kts | 143° |
| 2026-05-04 00:06 | 26.64381 | -81.67020 | 23717 ft | 393 kts | 143° |
| 2026-05-04 00:06 | 26.62580 | -81.64764 | 23268 ft | 397 kts | 136° |
| 2026-05-04 00:06 | 26.60919 | -81.62296 | 22735 ft | 397 kts | 135° |
| 2026-05-04 00:06 | 26.59267 | -81.59832 | 22283 ft | 395 kts | 135° |
| 2026-05-04 00:07 | 26.57631 | -81.57386 | 21867 ft | 392 kts | 134° |
| 2026-05-04 00:07 | 26.56003 | -81.54961 | 21443 ft | 388 kts | 135° |
| 2026-05-04 00:07 | 26.54385 | -81.52560 | 21036 ft | 385 kts | 134° |
| 2026-05-04 00:07 | 26.52780 | -81.50179 | 20627 ft | 383 kts | 134° |
| 2026-05-04 00:08 | 26.51182 | -81.47811 | 20226 ft | 380 kts | 134° |
| 2026-05-04 00:08 | 26.49600 | -81.45470 | 19831 ft | 377 kts | 134° |
| 2026-05-04 00:08 | 26.48046 | -81.43172 | 19447 ft | 374 kts | 134° |
| 2026-05-04 00:08 | 26.46487 | -81.40864 | 19064 ft | 371 kts | 134° |
| 2026-05-04 00:09 | 26.44936 | -81.38568 | 18685 ft | 369 kts | 134° |
| 2026-05-04 00:09 | 26.43399 | -81.36292 | 18310 ft | 366 kts | 134° |
| 2026-05-04 00:09 | 26.41870 | -81.34029 | 17878 ft | 364 kts | 134° |
| 2026-05-04 00:09 | 26.40337 | -81.31799 | 17450 ft | 360 kts | 135° |
| 2026-05-04 00:10 | 26.38768 | -81.29638 | 17029 ft | 356 kts | 136° |
| 2026-05-04 00:10 | 26.37194 | -81.27540 | 16258 ft | 350 kts | 136° |
| 2026-05-04 00:10 | 26.35624 | -81.25482 | 15459 ft | 346 kts | 136° |
| 2026-05-04 00:10 | 26.34089 | -81.23471 | 15062 ft | 339 kts | 136° |
| 2026-05-04 00:11 | 26.32582 | -81.21493 | 14682 ft | 339 kts | 136° |
| 2026-05-04 00:11 | 26.31063 | -81.19485 | 14288 ft | 338 kts | 135° |
| 2026-05-04 00:11 | 26.29551 | -81.17479 | 13903 ft | 339 kts | 135° |
| 2026-05-04 00:11 | 26.28042 | -81.15471 | 13496 ft | 336 kts | 135° |
| 2026-05-04 00:12 | 26.26543 | -81.13481 | 13088 ft | 334 kts | 135° |
| 2026-05-04 00:12 | 26.25054 | -81.11512 | 12720 ft | 331 kts | 135° |
| 2026-05-04 00:12 | 26.23569 | -81.09551 | 12324 ft | 329 kts | 135° |
| 2026-05-04 00:12 | 26.22093 | -81.07614 | 11951 ft | 328 kts | 135° |
| 2026-05-04 00:13 | 26.20622 | -81.05687 | 11601 ft | 325 kts | 134° |
| 2026-05-04 00:13 | 26.19181 | -81.03798 | 11217 ft | 323 kts | 134° |
| 2026-05-04 00:13 | 26.17733 | -81.01900 | 10838 ft | 322 kts | 134° |
| 2026-05-04 00:13 | 26.16292 | -81.00009 | 10512 ft | 319 kts | 133° |
| 2026-05-04 00:14 | 26.15076 | -80.97939 | 10165 ft | 320 kts | 118° |
| 2026-05-04 00:14 | 26.14330 | -80.95613 | 9877 ft | 319 kts | 104° |
| 2026-05-04 00:14 | 26.13921 | -80.93184 | 9462 ft | 319 kts | 102° |
| 2026-05-04 00:14 | 26.13526 | -80.90764 | 9085 ft | 317 kts | 102° |
| 2026-05-04 00:15 | 26.13130 | -80.88358 | 8704 ft | 316 kts | 102° |
| 2026-05-04 00:15 | 26.12733 | -80.85970 | 8236 ft | 312 kts | 102° |
| 2026-05-04 00:15 | 26.12345 | -80.83642 | 7755 ft | 308 kts | 102° |
| 2026-05-04 00:15 | 26.11955 | -80.81317 | 7340 ft | 303 kts | 102° |
| 2026-05-04 00:16 | 26.11572 | -80.79025 | 6970 ft | 300 kts | 101° |
| 2026-05-04 00:16 | 26.11193 | -80.76749 | 6837 ft | 299 kts | 102° |
| 2026-05-04 00:16 | 26.10815 | -80.74477 | 6687 ft | 299 kts | 102° |
| 2026-05-04 00:16 | 26.10434 | -80.72209 | 6534 ft | 298 kts | 102° |
| 2026-05-04 00:17 | 26.10053 | -80.69950 | 6378 ft | 297 kts | 102° |
| 2026-05-04 00:17 | 26.09673 | -80.67700 | 6209 ft | 295 kts | 101° |
| 2026-05-04 00:17 | 26.09295 | -80.65459 | 6052 ft | 294 kts | 101° |
| 2026-05-04 00:17 | 26.08917 | -80.63228 | 5900 ft | 293 kts | 101° |
| 2026-05-04 00:18 | 26.08544 | -80.61005 | 5744 ft | 292 kts | 101° |
| 2026-05-04 00:18 | 26.08170 | -80.58791 | 5589 ft | 290 kts | 101° |
| 2026-05-04 00:18 | 26.07801 | -80.56619 | 5442 ft | 289 kts | 101° |
| 2026-05-04 00:18 | 26.07427 | -80.54426 | 5287 ft | 288 kts | 101° |
| 2026-05-04 00:19 | 26.07056 | -80.52244 | 5138 ft | 287 kts | 102° |
| 2026-05-04 00:19 | 26.06744 | -80.50056 | 4984 ft | 287 kts | 95° |
| 2026-05-04 00:19 | 26.06697 | -80.47850 | 4792 ft | 283 kts | 90° |
| 2026-05-04 00:19 | 26.06722 | -80.45690 | 4593 ft | 276 kts | 90° |
| 2026-05-04 00:20 | 26.06723 | -80.43587 | 4411 ft | 268 kts | 91° |
| 2026-05-04 00:20 | 26.06713 | -80.41548 | 4262 ft | 259 kts | 91° |
| 2026-05-04 00:20 | 26.06704 | -80.39594 | 4031 ft | 254 kts | 91° |
| 2026-05-04 00:20 | 26.06696 | -80.37638 | 3721 ft | 250 kts | 91° |
| 2026-05-04 00:21 | 26.06688 | -80.35781 | 3442 ft | 230 kts | 90° |
| 2026-05-04 00:21 | 26.06681 | -80.34078 | 3140 ft | 210 kts | 90° |
| 2026-05-04 00:21 | 26.06674 | -80.32500 | 2867 ft | 201 kts | 91° |
| 2026-05-04 00:21 | 26.06667 | -80.30969 | 2614 ft | 195 kts | 90° |
| 2026-05-04 00:22 | 26.06660 | -80.29475 | 2364 ft | 192 kts | 90° |
| 2026-05-04 00:22 | 26.06652 | -80.28000 | 2114 ft | 189 kts | 90° |
| 2026-05-04 00:22 | 26.06645 | -80.26545 | 1902 ft | 187 kts | 90° |
| 2026-05-04 00:22 | 26.06638 | -80.25103 | 1635 ft | 186 kts | 90° |
| 2026-05-04 00:23 | 26.06631 | -80.23695 | 1383 ft | 177 kts | 89° |
| 2026-05-04 00:23 | 26.06623 | -80.22428 | 1157 ft | 152 kts | 88° |
| 2026-05-04 00:23 | 26.06617 | -80.21315 | 962 ft | 137 kts | 88° |
| 2026-05-04 00:23 | 26.06610 | -80.20283 | 792 ft | 131 kts | 87° |
| 2026-05-04 00:24 | 26.06608 | -80.19280 | 623 ft | 131 kts | 90° |
| 2026-05-04 00:24 | 26.06590 | -80.18283 | 490 ft | 129 kts | 87° |
| 2026-05-04 00:24 | 26.06595 | -80.17286 | 308 ft | 130 kts | 88° |
| 2026-05-04 00:24 | 26.06590 | -80.16293 | 152 ft | 128 kts | 87° |
| 2026-05-04 00:25 | 26.06585 | -80.15315 | 28 ft | 117 kts | 88° |
| 2026-05-04 00:25 | 26.06583 | -80.14676 | 32 ft | 41 kts | 90° |
| 2026-05-04 00:25 | 26.06581 | -80.14448 | 45 ft | 26 kts | 90° |
| 2026-05-04 00:25 | 26.06606 | -80.14266 | 51 ft | 22 kts | 63° |
| 2026-05-04 00:26 | 26.06677 | -80.14275 | 49 ft | 13 kts | 276° |
| 2026-05-04 00:26 | 26.06677 | -80.14355 | 49 ft | 11 kts | 270° |
| 2026-05-04 00:26 | 26.06677 | -80.14433 | 46 ft | 1 kts | 269° |
| 2026-05-04 00:26 | 26.06677 | -80.14466 | 44 ft | 8 kts | 269° |
| 2026-05-04 00:27 | 26.06677 | -80.14540 | 43 ft | 12 kts | 271° |
| 2026-05-04 00:27 | 26.06669 | -80.14663 | 33 ft | 20 kts | 270° |
| 2026-05-04 00:27 | 26.06678 | -80.14806 | 22 ft | 10 kts | 272° |
| 2026-05-04 00:27 | 26.06692 | -80.14887 | 19 ft | 12 kts | 291° |
| 2026-05-04 00:28 | 26.06762 | -80.14900 | 16 ft | 10 kts | 53° |
| 2026-05-04 00:28 | 26.06766 | -80.14840 | 15 ft | 8 kts | 89° |
| 2026-05-04 00:28 | 26.06767 | -80.14768 | 15 ft | 11 kts | 91° |
| 2026-05-04 00:28 | 26.06766 | -80.14701 | 15 ft | 9 kts | 91° |
| 2026-05-04 00:29 | 26.06766 | -80.14622 | 16 ft | 11 kts | 87° |
| 2026-05-04 00:29 | 26.06805 | -80.14573 | 16 ft | 7 kts | 43° |
| 2026-05-04 00:29 | 26.06817 | -80.14535 | 17 ft | 4 kts | 83° |
| 2026-05-04 00:29 | 26.06825 | -80.14519 | 16 ft | 1 kts | 47° |
| 2026-05-04 00:30 | 26.06832 | -80.14517 | 16 ft | 1 kts | 16° |
| 2026-05-04 00:30 | 26.06852 | -80.14516 | 16 ft | 3 kts | 360° |
| 2026-05-04 00:30 | 26.06864 | -80.14516 | 16 ft | 3 kts | 0° |
| 2026-05-04 00:30 | 26.06881 | -80.14516 | 16 ft | 0 kts | 0° |